sensor_id;sensor_type;location;lat;lon;timestamp;temperature;humidity
49441;DHT22;35317;51.978;6.296;2023-08-06T00:03:17;15.70;99.90
49441;DHT22;35317;51.978;6.296;2023-08-06T00:08:18;15.70;99.90
49441;DHT22;35317;51.978;6.296;2023-08-06T00:13:19;15.70;99.90
49441;DHT22;35317;51.978;6.296;2023-08-06T00:18:19;15.70;99.90
49441;DHT22;35317;51.978;6.296;2023-08-06T00:23:20;15.70;99.90
49441;DHT22;35317;51.978;6.296;2023-08-06T00:28:22;15.70;99.90
49441;DHT22;35317;51.978;6.296;2023-08-06T00:33:24;15.70;99.90
49441;DHT22;35317;51.978;6.296;2023-08-06T00:38:24;15.70;99.90
49441;DHT22;35317;51.978;6.296;2023-08-06T00:43:25;15.80;99.90
49441;DHT22;35317;51.978;6.296;2023-08-06T00:48:26;15.80;99.90
49441;DHT22;35317;51.978;6.296;2023-08-06T00:53:27;15.80;99.90
49441;DHT22;35317;51.978;6.296;2023-08-06T00:58:28;15.70;99.90
49441;DHT22;35317;51.978;6.296;2023-08-06T01:03:29;15.70;99.90
49441;DHT22;35317;51.978;6.296;2023-08-06T01:08:54;15.70;99.90
49441;DHT22;35317;51.978;6.296;2023-08-06T01:19:31;15.70;99.90
49441;DHT22;35317;51.978;6.296;2023-08-06T01:24:32;15.70;99.90
49441;DHT22;35317;51.978;6.296;2023-08-06T01:29:41;15.80;99.90
49441;DHT22;35317;51.978;6.296;2023-08-06T01:34:46;15.80;99.90
49441;DHT22;35317;51.978;6.296;2023-08-06T01:39:48;15.80;99.90
49441;DHT22;35317;51.978;6.296;2023-08-06T01:44:48;15.80;99.90
49441;DHT22;35317;51.978;6.296;2023-08-06T01:49:49;15.80;99.90
49441;DHT22;35317;51.978;6.296;2023-08-06T01:54:50;15.80;99.90
49441;DHT22;35317;51.978;6.296;2023-08-06T01:59:51;15.90;99.90
49441;DHT22;35317;51.978;6.296;2023-08-06T02:04:51;15.80;99.90
49441;DHT22;35317;51.978;6.296;2023-08-06T02:09:52;15.90;99.90
49441;DHT22;35317;51.978;6.296;2023-08-06T02:14:53;15.90;99.90
49441;DHT22;35317;51.978;6.296;2023-08-06T02:19:54;15.90;99.90
49441;DHT22;35317;51.978;6.296;2023-08-06T02:24:55;15.90;99.90
49441;DHT22;35317;51.978;6.296;2023-08-06T02:29:55;15.90;99.90
49441;DHT22;35317;51.978;6.296;2023-08-06T02:34:57;15.90;99.90
49441;DHT22;35317;51.978;6.296;2023-08-06T02:39:57;15.90;99.90
49441;DHT22;35317;51.978;6.296;2023-08-06T02:44:58;16.00;99.90
49441;DHT22;35317;51.978;6.296;2023-08-06T02:49:59;16.00;99.90
49441;DHT22;35317;51.978;6.296;2023-08-06T02:55:00;16.00;99.90
49441;DHT22;35317;51.978;6.296;2023-08-06T03:00:00;16.00;99.90
49441;DHT22;35317;51.978;6.296;2023-08-06T03:05:01;16.00;99.90
49441;DHT22;35317;51.978;6.296;2023-08-06T03:10:02;16.00;99.90
49441;DHT22;35317;51.978;6.296;2023-08-06T03:15:03;15.90;99.90
49441;DHT22;35317;51.978;6.296;2023-08-06T03:20:05;15.90;99.90
49441;DHT22;35317;51.978;6.296;2023-08-06T03:25:06;15.90;99.90
49441;DHT22;35317;51.978;6.296;2023-08-06T03:30:08;15.90;99.90
49441;DHT22;35317;51.978;6.296;2023-08-06T03:35:09;15.90;99.90
49441;DHT22;35317;51.978;6.296;2023-08-06T03:40:10;15.90;99.90
49441;DHT22;35317;51.978;6.296;2023-08-06T03:45:11;15.90;99.90
49441;DHT22;35317;51.978;6.296;2023-08-06T03:50:11;15.80;99.90
49441;DHT22;35317;51.978;6.296;2023-08-06T03:55:13;15.80;99.90
49441;DHT22;35317;51.978;6.296;2023-08-06T04:00:14;15.80;99.90
49441;DHT22;35317;51.978;6.296;2023-08-06T04:05:15;15.80;99.90
49441;DHT22;35317;51.978;6.296;2023-08-06T04:10:16;15.80;99.90
49441;DHT22;35317;51.978;6.296;2023-08-06T04:15:17;15.80;99.90
49441;DHT22;35317;51.978;6.296;2023-08-06T04:20:18;15.80;99.90
49441;DHT22;35317;51.978;6.296;2023-08-06T04:25:19;15.80;99.90
49441;DHT22;35317;51.978;6.296;2023-08-06T04:30:21;15.90;99.90
49441;DHT22;35317;51.978;6.296;2023-08-06T04:35:22;15.90;99.90
49441;DHT22;35317;51.978;6.296;2023-08-06T04:40:23;16.00;99.90
49441;DHT22;35317;51.978;6.296;2023-08-06T04:45:23;16.00;99.90
49441;DHT22;35317;51.978;6.296;2023-08-06T04:50:25;16.00;99.90
49441;DHT22;35317;51.978;6.296;2023-08-06T04:55:25;16.00;99.90
49441;DHT22;35317;51.978;6.296;2023-08-06T05:00:26;16.10;99.90
49441;DHT22;35317;51.978;6.296;2023-08-06T05:05:28;16.10;99.90
49441;DHT22;35317;51.978;6.296;2023-08-06T05:10:28;16.20;99.90
49441;DHT22;35317;51.978;6.296;2023-08-06T05:15:29;16.20;99.90
49441;DHT22;35317;51.978;6.296;2023-08-06T05:20:30;16.30;99.90
49441;DHT22;35317;51.978;6.296;2023-08-06T05:25:31;16.40;99.90
49441;DHT22;35317;51.978;6.296;2023-08-06T05:30:32;16.40;99.90
49441;DHT22;35317;51.978;6.296;2023-08-06T05:35:33;16.50;99.90
49441;DHT22;35317;51.978;6.296;2023-08-06T05:40:34;16.50;99.90
49441;DHT22;35317;51.978;6.296;2023-08-06T05:45:35;16.60;99.90
49441;DHT22;35317;51.978;6.296;2023-08-06T05:50:36;16.70;99.90
49441;DHT22;35317;51.978;6.296;2023-08-06T05:55:36;16.70;99.90
49441;DHT22;35317;51.978;6.296;2023-08-06T06:00:37;16.80;99.90
49441;DHT22;35317;51.978;6.296;2023-08-06T06:05:38;16.90;99.90
49441;DHT22;35317;51.978;6.296;2023-08-06T06:10:39;16.90;99.90
49441;DHT22;35317;51.978;6.296;2023-08-06T06:15:40;16.90;99.90
49441;DHT22;35317;51.978;6.296;2023-08-06T06:20:41;17.00;99.90
49441;DHT22;35317;51.978;6.296;2023-08-06T06:25:43;17.10;99.90
49441;DHT22;35317;51.978;6.296;2023-08-06T06:30:44;17.20;99.90
49441;DHT22;35317;51.978;6.296;2023-08-06T06:35:45;17.30;99.90
49441;DHT22;35317;51.978;6.296;2023-08-06T06:40:55;17.50;99.90
49441;DHT22;35317;51.978;6.296;2023-08-06T06:46:00;17.60;99.90
49441;DHT22;35317;51.978;6.296;2023-08-06T06:51:01;17.80;99.90
49441;DHT22;35317;51.978;6.296;2023-08-06T06:56:03;18.00;99.90
49441;DHT22;35317;51.978;6.296;2023-08-06T07:01:05;18.10;99.90
49441;DHT22;35317;51.978;6.296;2023-08-06T07:06:06;18.20;99.90
49441;DHT22;35317;51.978;6.296;2023-08-06T07:11:07;18.30;99.90
49441;DHT22;35317;51.978;6.296;2023-08-06T07:16:08;18.40;99.90
49441;DHT22;35317;51.978;6.296;2023-08-06T07:21:08;18.60;99.90
49441;DHT22;35317;51.978;6.296;2023-08-06T07:26:09;18.70;99.90
49441;DHT22;35317;51.978;6.296;2023-08-06T07:31:10;18.60;99.90
49441;DHT22;35317;51.978;6.296;2023-08-06T07:36:13;18.60;99.90
49441;DHT22;35317;51.978;6.296;2023-08-06T07:41:14;18.60;99.90
49441;DHT22;35317;51.978;6.296;2023-08-06T07:46:15;18.60;99.90
49441;DHT22;35317;51.978;6.296;2023-08-06T07:51:15;18.60;99.90
49441;DHT22;35317;51.978;6.296;2023-08-06T07:56:16;18.70;99.90
49441;DHT22;35317;51.978;6.296;2023-08-06T08:01:17;18.80;99.90
49441;DHT22;35317;51.978;6.296;2023-08-06T08:06:18;18.80;99.90
49441;DHT22;35317;51.978;6.296;2023-08-06T08:11:20;18.80;99.90
49441;DHT22;35317;51.978;6.296;2023-08-06T08:16:21;18.90;99.90
49441;DHT22;35317;51.978;6.296;2023-08-06T08:21:22;19.00;99.90
49441;DHT22;35317;51.978;6.296;2023-08-06T08:26:24;19.30;99.90
49441;DHT22;35317;51.978;6.296;2023-08-06T08:31:27;19.50;99.90
49441;DHT22;35317;51.978;6.296;2023-08-06T08:36:29;19.40;99.90
49441;DHT22;35317;51.978;6.296;2023-08-06T08:41:30;19.40;99.90
49441;DHT22;35317;51.978;6.296;2023-08-06T08:46:32;19.40;99.90
49441;DHT22;35317;51.978;6.296;2023-08-06T08:51:34;19.30;99.90
49441;DHT22;35317;51.978;6.296;2023-08-06T08:56:38;19.30;99.90
49441;DHT22;35317;51.978;6.296;2023-08-06T09:01:40;19.30;99.90
49441;DHT22;35317;51.978;6.296;2023-08-06T09:06:43;19.30;99.90
49441;DHT22;35317;51.978;6.296;2023-08-06T09:11:48;19.40;99.90
49441;DHT22;35317;51.978;6.296;2023-08-06T09:16:49;19.30;99.90
49441;DHT22;35317;51.978;6.296;2023-08-06T09:21:52;19.40;99.90
49441;DHT22;35317;51.978;6.296;2023-08-06T09:26:53;19.40;99.90
49441;DHT22;35317;51.978;6.296;2023-08-06T09:31:54;19.30;99.90
49441;DHT22;35317;51.978;6.296;2023-08-06T09:36:55;19.40;99.90
49441;DHT22;35317;51.978;6.296;2023-08-06T09:42:00;19.30;99.90
49441;DHT22;35317;51.978;6.296;2023-08-06T09:47:03;19.30;99.90
49441;DHT22;35317;51.978;6.296;2023-08-06T09:52:05;19.30;99.90
49441;DHT22;35317;51.978;6.296;2023-08-06T09:57:06;19.40;99.90
49441;DHT22;35317;51.978;6.296;2023-08-06T10:02:12;19.40;99.90
49441;DHT22;35317;51.978;6.296;2023-08-06T10:07:14;19.50;99.90
49441;DHT22;35317;51.978;6.296;2023-08-06T10:12:17;19.50;99.90
49441;DHT22;35317;51.978;6.296;2023-08-06T10:17:21;19.60;99.90
49441;DHT22;35317;51.978;6.296;2023-08-06T10:22:23;19.60;99.90
49441;DHT22;35317;51.978;6.296;2023-08-06T10:27:32;19.70;99.90
49441;DHT22;35317;51.978;6.296;2023-08-06T10:32:56;19.80;99.90
49441;DHT22;35317;51.978;6.296;2023-08-06T10:37:59;20.00;99.90
49441;DHT22;35317;51.978;6.296;2023-08-06T10:43:40;20.20;99.90
49441;DHT22;35317;51.978;6.296;2023-08-06T10:48:45;20.40;99.90
49441;DHT22;35317;51.978;6.296;2023-08-06T10:53:48;20.50;99.90
49441;DHT22;35317;51.978;6.296;2023-08-06T10:58:51;20.50;99.90
49441;DHT22;35317;51.978;6.296;2023-08-06T11:03:53;20.60;99.90
49441;DHT22;35317;51.978;6.296;2023-08-06T11:08:55;20.40;99.90
49441;DHT22;35317;51.978;6.296;2023-08-06T11:13:56;20.30;99.90
49441;DHT22;35317;51.978;6.296;2023-08-06T11:18:57;20.20;99.90
49441;DHT22;35317;51.978;6.296;2023-08-06T11:24:00;20.20;99.90
49441;DHT22;35317;51.978;6.296;2023-08-06T11:29:01;20.20;99.90
49441;DHT22;35317;51.978;6.296;2023-08-06T11:34:02;20.20;99.90
49441;DHT22;35317;51.978;6.296;2023-08-06T11:39:03;20.00;99.90
49441;DHT22;35317;51.978;6.296;2023-08-06T11:44:10;19.70;99.90
49441;DHT22;35317;51.978;6.296;2023-08-06T11:49:12;19.30;99.90
49441;DHT22;35317;51.978;6.296;2023-08-06T11:54:13;19.00;99.90
49441;DHT22;35317;51.978;6.296;2023-08-06T11:59:14;18.60;99.90
49441;DHT22;35317;51.978;6.296;2023-08-06T12:04:15;18.30;99.90
49441;DHT22;35317;51.978;6.296;2023-08-06T12:09:16;17.90;99.90
49441;DHT22;35317;51.978;6.296;2023-08-06T12:14:17;17.60;99.90
49441;DHT22;35317;51.978;6.296;2023-08-06T12:19:17;17.40;99.90
49441;DHT22;35317;51.978;6.296;2023-08-06T12:24:18;17.20;99.90
49441;DHT22;35317;51.978;6.296;2023-08-06T12:29:19;17.20;99.90
49441;DHT22;35317;51.978;6.296;2023-08-06T12:34:20;17.20;99.90
49441;DHT22;35317;51.978;6.296;2023-08-06T12:39:20;17.10;99.90
49441;DHT22;35317;51.978;6.296;2023-08-06T12:44:21;17.10;99.90
49441;DHT22;35317;51.978;6.296;2023-08-06T12:49:22;16.90;99.90
49441;DHT22;35317;51.978;6.296;2023-08-06T12:54:24;16.90;99.90
49441;DHT22;35317;51.978;6.296;2023-08-06T12:59:25;16.80;99.90
49441;DHT22;35317;51.978;6.296;2023-08-06T13:04:25;16.80;99.90
49441;DHT22;35317;51.978;6.296;2023-08-06T13:09:26;16.60;99.90
49441;DHT22;35317;51.978;6.296;2023-08-06T13:14:28;16.50;99.90
49441;DHT22;35317;51.978;6.296;2023-08-06T13:19:30;16.40;99.90
49441;DHT22;35317;51.978;6.296;2023-08-06T13:24:31;16.40;99.90
49441;DHT22;35317;51.978;6.296;2023-08-06T13:29:31;16.50;99.90
49441;DHT22;35317;51.978;6.296;2023-08-06T13:34:32;16.50;99.90
49441;DHT22;35317;51.978;6.296;2023-08-06T13:39:33;16.50;99.90
49441;DHT22;35317;51.978;6.296;2023-08-06T13:44:34;16.50;99.90
49441;DHT22;35317;51.978;6.296;2023-08-06T13:49:36;16.40;99.90
49441;DHT22;35317;51.978;6.296;2023-08-06T13:54:37;16.40;99.90
49441;DHT22;35317;51.978;6.296;2023-08-06T13:59:38;16.30;99.90
49441;DHT22;35317;51.978;6.296;2023-08-06T14:04:38;16.20;99.90
49441;DHT22;35317;51.978;6.296;2023-08-06T14:09:40;16.00;99.90
49441;DHT22;35317;51.978;6.296;2023-08-06T14:14:49;16.00;99.90
49441;DHT22;35317;51.978;6.296;2023-08-06T14:19:49;15.80;99.90
49441;DHT22;35317;51.978;6.296;2023-08-06T14:24:50;15.80;99.90
49441;DHT22;35317;51.978;6.296;2023-08-06T14:29:51;15.70;99.90
49441;DHT22;35317;51.978;6.296;2023-08-06T14:34:52;15.40;99.90
49441;DHT22;35317;51.978;6.296;2023-08-06T14:39:52;15.30;99.90
49441;DHT22;35317;51.978;6.296;2023-08-06T14:44:54;15.20;99.90
49441;DHT22;35317;51.978;6.296;2023-08-06T14:49:55;15.10;99.90
49441;DHT22;35317;51.978;6.296;2023-08-06T14:54:55;15.00;99.90
49441;DHT22;35317;51.978;6.296;2023-08-06T14:59:56;15.10;99.90
49441;DHT22;35317;51.978;6.296;2023-08-06T15:04:57;15.10;99.90
49441;DHT22;35317;51.978;6.296;2023-08-06T15:09:58;15.10;99.90
49441;DHT22;35317;51.978;6.296;2023-08-06T15:14:59;15.20;99.90
49441;DHT22;35317;51.978;6.296;2023-08-06T15:20:02;15.30;99.90
49441;DHT22;35317;51.978;6.296;2023-08-06T15:25:03;15.30;99.90
49441;DHT22;35317;51.978;6.296;2023-08-06T15:30:05;15.40;99.90
49441;DHT22;35317;51.978;6.296;2023-08-06T15:35:06;15.50;99.90
49441;DHT22;35317;51.978;6.296;2023-08-06T15:40:09;15.60;99.90
49441;DHT22;35317;51.978;6.296;2023-08-06T15:45:10;15.70;99.90
49441;DHT22;35317;51.978;6.296;2023-08-06T15:50:11;15.80;99.90
49441;DHT22;35317;51.978;6.296;2023-08-06T15:55:12;15.90;99.90
49441;DHT22;35317;51.978;6.296;2023-08-06T16:00:13;16.00;99.90
49441;DHT22;35317;51.978;6.296;2023-08-06T16:05:13;16.00;99.90
49441;DHT22;35317;51.978;6.296;2023-08-06T16:10:14;16.00;99.90
49441;DHT22;35317;51.978;6.296;2023-08-06T16:15:15;16.00;99.90
49441;DHT22;35317;51.978;6.296;2023-08-06T16:20:19;16.00;99.90
49441;DHT22;35317;51.978;6.296;2023-08-06T16:25:20;16.10;99.90
49441;DHT22;35317;51.978;6.296;2023-08-06T16:30:21;16.10;99.90
49441;DHT22;35317;51.978;6.296;2023-08-06T16:35:21;16.10;99.90
49441;DHT22;35317;51.978;6.296;2023-08-06T16:40:22;16.00;99.90
49441;DHT22;35317;51.978;6.296;2023-08-06T16:45:23;15.80;99.90
49441;DHT22;35317;51.978;6.296;2023-08-06T16:50:24;15.70;99.90
49441;DHT22;35317;51.978;6.296;2023-08-06T16:55:25;15.60;99.90
49441;DHT22;35317;51.978;6.296;2023-08-06T17:00:26;15.50;99.90
49441;DHT22;35317;51.978;6.296;2023-08-06T17:05:28;15.40;99.90
49441;DHT22;35317;51.978;6.296;2023-08-06T17:10:33;15.30;99.90
49441;DHT22;35317;51.978;6.296;2023-08-06T17:15:34;15.20;99.90
49441;DHT22;35317;51.978;6.296;2023-08-06T17:20:35;15.20;99.90
49441;DHT22;35317;51.978;6.296;2023-08-06T17:25:36;15.20;99.90
49441;DHT22;35317;51.978;6.296;2023-08-06T17:30:39;15.20;99.90
49441;DHT22;35317;51.978;6.296;2023-08-06T17:35:42;15.20;99.90
49441;DHT22;35317;51.978;6.296;2023-08-06T17:40:44;15.20;99.90
49441;DHT22;35317;51.978;6.296;2023-08-06T17:45:45;15.20;99.90
49441;DHT22;35317;51.978;6.296;2023-08-06T17:50:46;15.10;99.90
49441;DHT22;35317;51.978;6.296;2023-08-06T17:55:47;15.10;99.90
49441;DHT22;35317;51.978;6.296;2023-08-06T18:00:48;15.10;99.90
49441;DHT22;35317;51.978;6.296;2023-08-06T18:05:57;15.10;99.90
49441;DHT22;35317;51.978;6.296;2023-08-06T18:10:58;15.00;99.90
49441;DHT22;35317;51.978;6.296;2023-08-06T18:15:59;15.00;99.90
49441;DHT22;35317;51.978;6.296;2023-08-06T18:21:00;15.00;99.90
49441;DHT22;35317;51.978;6.296;2023-08-06T18:26:00;14.90;99.90
49441;DHT22;35317;51.978;6.296;2023-08-06T18:31:03;14.90;99.90
49441;DHT22;35317;51.978;6.296;2023-08-06T18:36:04;14.90;99.90
49441;DHT22;35317;51.978;6.296;2023-08-06T18:41:05;14.80;99.90
49441;DHT22;35317;51.978;6.296;2023-08-06T18:46:06;14.80;99.90
49441;DHT22;35317;51.978;6.296;2023-08-06T18:51:07;14.80;99.90
49441;DHT22;35317;51.978;6.296;2023-08-06T18:56:07;14.70;99.90
49441;DHT22;35317;51.978;6.296;2023-08-06T19:01:08;14.70;99.90
49441;DHT22;35317;51.978;6.296;2023-08-06T19:06:09;14.70;99.90
49441;DHT22;35317;51.978;6.296;2023-08-06T19:11:10;14.60;99.90
49441;DHT22;35317;51.978;6.296;2023-08-06T19:16:10;14.60;99.90
49441;DHT22;35317;51.978;6.296;2023-08-06T19:21:11;14.60;99.90
49441;DHT22;35317;51.978;6.296;2023-08-06T19:26:12;14.50;99.90
49441;DHT22;35317;51.978;6.296;2023-08-06T19:31:13;14.50;99.90
49441;DHT22;35317;51.978;6.296;2023-08-06T19:36:14;14.50;99.90
49441;DHT22;35317;51.978;6.296;2023-08-06T19:41:15;14.50;99.90
49441;DHT22;35317;51.978;6.296;2023-08-06T19:46:16;14.40;99.90
49441;DHT22;35317;51.978;6.296;2023-08-06T19:51:17;14.40;99.90
49441;DHT22;35317;51.978;6.296;2023-08-06T19:56:19;14.40;99.90
49441;DHT22;35317;51.978;6.296;2023-08-06T20:01:20;14.40;99.90
49441;DHT22;35317;51.978;6.296;2023-08-06T20:06:24;14.40;99.90
49441;DHT22;35317;51.978;6.296;2023-08-06T20:11:30;14.30;99.90
49441;DHT22;35317;51.978;6.296;2023-08-06T20:16:34;14.40;99.90
49441;DHT22;35317;51.978;6.296;2023-08-06T20:21:35;14.40;99.90
49441;DHT22;35317;51.978;6.296;2023-08-06T20:26:36;14.40;99.90
49441;DHT22;35317;51.978;6.296;2023-08-06T20:31:37;14.30;99.90
49441;DHT22;35317;51.978;6.296;2023-08-06T20:36:37;14.40;99.90
49441;DHT22;35317;51.978;6.296;2023-08-06T20:41:38;14.40;99.90
49441;DHT22;35317;51.978;6.296;2023-08-06T20:46:39;14.40;99.90
49441;DHT22;35317;51.978;6.296;2023-08-06T20:51:40;14.40;99.90
49441;DHT22;35317;51.978;6.296;2023-08-06T20:56:40;14.40;99.90
49441;DHT22;35317;51.978;6.296;2023-08-06T21:01:41;14.40;99.90
49441;DHT22;35317;51.978;6.296;2023-08-06T21:06:42;14.50;99.90
49441;DHT22;35317;51.978;6.296;2023-08-06T21:11:43;14.50;99.90
49441;DHT22;35317;51.978;6.296;2023-08-06T21:16:43;14.50;99.90
49441;DHT22;35317;51.978;6.296;2023-08-06T21:21:44;14.50;99.90
49441;DHT22;35317;51.978;6.296;2023-08-06T21:26:46;14.50;99.90
49441;DHT22;35317;51.978;6.296;2023-08-06T21:31:47;14.50;99.90
49441;DHT22;35317;51.978;6.296;2023-08-06T21:36:47;14.60;99.90
49441;DHT22;35317;51.978;6.296;2023-08-06T21:41:50;14.50;99.90
49441;DHT22;35317;51.978;6.296;2023-08-06T21:46:51;14.50;99.90
49441;DHT22;35317;51.978;6.296;2023-08-06T21:51:52;14.60;99.90
49441;DHT22;35317;51.978;6.296;2023-08-06T21:56:53;14.50;99.90
49441;DHT22;35317;51.978;6.296;2023-08-06T22:01:53;14.50;99.90
49441;DHT22;35317;51.978;6.296;2023-08-06T22:06:54;14.50;99.90
49441;DHT22;35317;51.978;6.296;2023-08-06T22:11:55;14.50;99.90
49441;DHT22;35317;51.978;6.296;2023-08-06T22:16:56;14.50;99.90
49441;DHT22;35317;51.978;6.296;2023-08-06T22:21:56;14.60;99.90
49441;DHT22;35317;51.978;6.296;2023-08-06T22:26:57;14.50;99.90
49441;DHT22;35317;51.978;6.296;2023-08-06T22:31:58;14.50;99.90
49441;DHT22;35317;51.978;6.296;2023-08-06T22:37:00;14.60;99.90
49441;DHT22;35317;51.978;6.296;2023-08-06T22:42:00;14.60;99.90
49441;DHT22;35317;51.978;6.296;2023-08-06T22:47:01;14.60;99.90
49441;DHT22;35317;51.978;6.296;2023-08-06T22:52:02;14.60;99.90
49441;DHT22;35317;51.978;6.296;2023-08-06T22:57:04;14.60;99.90
49441;DHT22;35317;51.978;6.296;2023-08-06T23:02:05;14.60;99.90
49441;DHT22;35317;51.978;6.296;2023-08-06T23:07:06;14.60;99.90
49441;DHT22;35317;51.978;6.296;2023-08-06T23:12:07;14.60;99.90
49441;DHT22;35317;51.978;6.296;2023-08-06T23:17:08;14.60;99.90
49441;DHT22;35317;51.978;6.296;2023-08-06T23:22:11;14.60;99.90
49441;DHT22;35317;51.978;6.296;2023-08-06T23:27:12;14.60;99.90
49441;DHT22;35317;51.978;6.296;2023-08-06T23:32:13;14.50;99.90
49441;DHT22;35317;51.978;6.296;2023-08-06T23:37:13;14.50;99.90
49441;DHT22;35317;51.978;6.296;2023-08-06T23:42:14;14.50;99.90
49441;DHT22;35317;51.978;6.296;2023-08-06T23:47:15;14.40;99.90
49441;DHT22;35317;51.978;6.296;2023-08-06T23:52:16;14.50;99.90
49441;DHT22;35317;51.978;6.296;2023-08-06T23:57:16;14.40;99.90
